Time;durP1;ratioP1;P1;durP2;ratioP2;P2;SDS_P1;SDS_P2;PMS_P1;PMS_P2;Temp;Humidity;BMP_temperature;BMP_pressure;BME280_temperature;BME280_humidity;BME280_pressure;Samples;Min_cycle;Max_cycle;Signal;HPM_P1;HPM_P2
2023/02/04 00:02:06;;;;;;;4.30;2.03;;;;;;;;;;6179304;23;20017;-84
2023/02/04 00:04:33;;;;;;;5.28;2.40;;;;;;;;;;6179089;23;20061;-83
2023/02/04 00:07:00;;;;;;;6.22;2.35;;;;;;;;;;6179977;23;20053;-83
2023/02/04 00:09:34;;;;;;;4.97;2.13;;;;;;;;;;6178547;23;20021;-83
2023/02/04 00:12:01;;;;;;;5.38;2.10;;;;;;;;;;6152659;23;20025;-83
2023/02/04 00:14:28;;;;;;;5.43;2.28;;;;;;;;;;6178920;23;20061;-84
2023/02/04 00:17:02;;;;;;;5.53;2.28;;;;;;;;;;6178669;23;20100;-83
2023/02/04 00:19:29;;;;;;;5.53;2.72;;;;;;;;;;6178855;23;20025;-83
2023/02/04 00:22:03;;;;;;;5.55;2.08;;;;;;;;;;6179096;23;20048;-84
2023/02/04 00:24:30;;;;;;;10.00;2.45;;;;;;;;;;6177821;23;20102;-84
2023/02/04 00:26:57;;;;;;;3.88;2.22;;;;;;;;;;6178308;23;20108;-84
2023/02/04 00:29:38;;;;;;;6.18;2.30;;;;;;;;;;6177402;23;20132;-84
2023/02/04 00:32:12;;;;;;;8.30;2.20;;;;;;;;;;6177445;23;20035;-84
2023/02/04 00:34:45;;;;;;;7.63;2.13;;;;;;;;;;6177411;23;20110;-84
2023/02/04 00:37:12;;;;;;;6.28;2.30;;;;;;;;;;6179530;23;20049;-84
2023/02/04 00:39:46;;;;;;;7.10;2.15;;;;;;;;;;6179446;23;20024;-84
2023/02/04 00:42:13;;;;;;;4.32;2.17;;;;;;;;;;6178640;23;20104;-84
2023/02/04 00:44:40;;;;;;;3.70;2.03;;;;;;;;;;6179044;23;20056;-83
2023/02/04 00:47:14;;;;;;;5.88;2.13;;;;;;;;;;6177664;23;20071;-83
2023/02/04 00:49:41;;;;;;;;;;;;;;;;;;6179306;23;20096;-84
2023/02/04 00:52:15;;;;;;;5.83;2.27;;;;;;;;;;6179476;23;19916;-84
2023/02/04 00:54:42;;;;;;;6.82;2.20;;;;;;;;;;6153435;23;20033;-83
2023/02/04 00:57:09;;;;;;;5.68;2.35;;;;;;;;;;6180235;23;20029;-83
2023/02/04 00:59:43;;;;;;;9.93;2.30;;;;;;;;;;6178976;23;20028;-84
2023/02/04 01:02:11;;;;;;;13.23;2.30;;;;;;;;;;6178346;23;20091;-84
2023/02/04 01:04:38;;;;;;;11.07;2.53;;;;;;;;;;6178449;23;20028;-84
2023/02/04 01:07:12;;;;;;;5.93;2.30;;;;;;;;;;6179913;23;20092;-85
2023/02/04 01:09:39;;;;;;;13.63;2.40;;;;;;;;;;6179234;23;20398;-84
2023/02/04 01:12:13;;;;;;;9.00;2.33;;;;;;;;;;6177363;23;20028;-83
2023/02/04 01:14:40;;;;;;;8.10;2.00;;;;;;;;;;6178750;23;20112;-83
2023/02/04 01:17:07;;;;;;;3.40;2.03;;;;;;;;;;6177965;23;20099;-84
2023/02/04 01:19:41;;;;;;;4.95;2.05;;;;;;;;;;6178967;23;20115;-84
2023/02/04 01:22:08;;;;;;;10.25;2.15;;;;;;;;;;6178488;23;20813;-84
2023/02/04 01:24:42;;;;;;;7.05;2.10;;;;;;;;;;6178160;23;20060;-84
2023/02/04 01:27:09;;;;;;;;;;;;;;;;;;6178120;23;20025;-84
2023/02/04 01:29:36;;;;;;;6.40;2.17;;;;;;;;;;6176820;23;19923;-84
2023/02/04 01:32:10;;;;;;;5.15;2.22;;;;;;;;;;6178416;23;20848;-84
2023/02/04 01:34:37;;;;;;;5.50;2.00;;;;;;;;;;6177995;23;20358;-84
2023/02/04 01:37:11;;;;;;;3.65;2.10;;;;;;;;;;6178849;23;20055;-84
2023/02/04 01:39:38;;;;;;;6.55;2.20;;;;;;;;;;6178352;23;20096;-84
2023/02/04 01:42:05;;;;;;;7.85;2.53;;;;;;;;;;6178562;23;20109;-83
2023/02/04 01:44:39;;;;;;;3.08;1.75;;;;;;;;;;6178857;23;20116;-83
2023/02/04 01:47:06;;;;;;;;;;;;;;;;;;6177001;23;20025;-83
2023/02/04 01:49:40;;;;;;;5.03;2.00;;;;;;;;;;6178474;23;19995;-83
2023/02/04 01:52:07;;;;;;;;;;;;;;;;;;6179486;23;20036;-83
2023/02/04 01:54:34;;;;;;;4.28;1.60;;;;;;;;;;6178699;23;20031;-83
2023/02/04 01:57:13;;;;;;;6.85;1.80;;;;;;;;;;6154339;23;20100;-83
2023/02/04 01:59:41;;;;;;;5.47;2.40;;;;;;;;;;6178098;23;20032;-83
2023/02/04 02:02:33;;;;;;;3.65;2.10;;;;;;;;;;6178203;23;20031;-83
2023/02/04 02:05:01;;;;;;;4.63;1.83;;;;;;;;;;6178456;23;20025;-84
2023/02/04 02:07:35;;;;;;;7.03;2.13;;;;;;;;;;6154401;23;20056;-83
2023/02/04 02:10:04;;;;;;;8.63;2.00;;;;;;;;;;6177349;23;20632;-83
2023/02/04 02:12:31;;;;;;;5.35;1.83;;;;;;;;;;6180233;23;20021;-83
2023/02/04 02:15:05;;;;;;;3.80;1.77;;;;;;;;;;6180651;23;20039;-83
2023/02/04 02:17:32;;;;;;;5.70;1.85;;;;;;;;;;6179677;23;20436;-83
2023/02/04 02:20:00;;;;;;;5.47;1.98;;;;;;;;;;6178865;23;20747;-83
2023/02/04 02:22:41;;;;;;;4.97;2.10;;;;;;;;;;6179688;23;20124;-83
2023/02/04 02:25:09;;;;;;;4.63;1.88;;;;;;;;;;6180444;23;20087;-83
2023/02/04 02:27:43;;;;;;;10.02;1.80;;;;;;;;;;6180230;23;20021;-84
2023/02/04 02:30:11;;;;;;;4.88;1.95;;;;;;;;;;6178635;23;20121;-83
2023/02/04 02:32:52;;;;;;;3.58;1.85;;;;;;;;;;6154759;23;20060;-84
2023/02/04 02:35:19;;;;;;;3.80;1.95;;;;;;;;;;6179907;23;20068;-84
2023/02/04 02:37:53;;;;;;;5.50;2.05;;;;;;;;;;6178846;23;20021;-84
2023/02/04 02:40:20;;;;;;;4.22;1.77;;;;;;;;;;6181512;23;20064;-83
2023/02/04 02:42:55;;;;;;;2.60;1.75;;;;;;;;;;6180102;23;20040;-84
2023/02/04 02:45:24;;;;;;;4.57;2.17;;;;;;;;;;6180642;23;20063;-84
2023/02/04 02:47:51;;;;;;;3.03;1.88;;;;;;;;;;6179090;23;20048;-84
2023/02/04 02:50:26;;;;;;;3.80;1.92;;;;;;;;;;6180574;23;20029;-83
2023/02/04 02:52:54;;;;;;;4.15;1.90;;;;;;;;;;6179853;23;20083;-84
2023/02/04 02:55:28;;;;;;;6.50;2.00;;;;;;;;;;6180574;23;20025;-84
2023/02/04 02:57:56;;;;;;;3.13;1.95;;;;;;;;;;6180201;23;20035;-83
2023/02/04 03:00:24;;;;;;;5.13;1.85;;;;;;;;;;6180528;23;20101;-83
2023/02/04 03:03:04;;;;;;;7.00;1.92;;;;;;;;;;6180975;23;20083;-84
2023/02/04 03:05:33;;;;;;;7.10;1.60;;;;;;;;;;6180377;23;20408;-83
2023/02/04 03:08:08;;;;;;;10.45;2.42;;;;;;;;;;6179592;23;20052;-84
2023/02/04 03:10:36;;;;;;;6.40;1.95;;;;;;;;;;6180265;23;20060;-83
2023/02/04 03:13:11;;;;;;;4.78;1.80;;;;;;;;;;6180476;23;20104;-85
2023/02/04 03:15:38;;;;;;;4.82;2.15;;;;;;;;;;6179518;23;20072;-84
2023/02/04 03:18:05;;;;;;;4.90;2.08;;;;;;;;;;6178858;23;20071;-83
2023/02/04 03:20:40;;;;;;;7.07;2.97;;;;;;;;;;6179477;23;20109;-83
2023/02/04 03:23:07;;;;;;;6.93;1.92;;;;;;;;;;6179001;23;20060;-83
2023/02/04 03:25:34;;;;;;;4.32;1.80;;;;;;;;;;6179544;23;20407;-85
2023/02/04 03:28:08;;;;;;;5.07;1.88;;;;;;;;;;6178993;23;20530;-83
2023/02/04 03:30:43;;;;;;;4.00;1.65;;;;;;;;;;6178015;23;20104;-84
2023/02/04 03:33:17;;;;;;;6.53;1.80;;;;;;;;;;6180199;23;20506;-83
2023/02/04 03:35:44;;;;;;;6.07;2.17;;;;;;;;;;6179025;23;20478;-83
2023/02/04 03:38:11;;;;;;;4.07;1.67;;;;;;;;;;6179011;23;20067;-83
2023/02/04 03:40:46;;;;;;;2.38;1.60;;;;;;;;;;6180376;23;20053;-83
2023/02/04 03:43:13;;;;;;;;;;;;;;;;;;6180174;23;20358;-83
2023/02/04 03:45:47;;;;;;;8.15;2.03;;;;;;;;;;6179246;23;19919;-83
2023/02/04 03:48:14;;;;;;;3.50;2.00;;;;;;;;;;6179535;23;20175;-83
2023/02/04 03:50:41;;;;;;;6.32;2.00;;;;;;;;;;6153467;23;20029;-83
2023/02/04 03:53:15;;;;;;;6.03;1.95;;;;;;;;;;6179659;23;20052;-83
2023/02/04 03:55:42;;;;;;;3.72;1.95;;;;;;;;;;6179787;23;20060;-83
2023/02/04 03:58:16;;;;;;;3.63;1.80;;;;;;;;;;6179503;23;20035;-83
2023/02/04 04:00:43;;;;;;;;;;;;;;;;;;6153462;23;20056;-83
2023/02/04 04:03:11;;;;;;;13.02;3.17;;;;;;;;;;6178506;23;20308;-83
2023/02/04 04:05:44;;;;;;;8.27;2.65;;;;;;;;;;6179713;23;20033;-84
2023/02/04 04:08:11;;;;;;;10.93;3.83;;;;;;;;;;6153017;23;20096;-84
2023/02/04 04:10:38;;;;;;;11.65;3.78;;;;;;;;;;6179490;23;20354;-84
2023/02/04 04:13:12;;;;;;;12.43;4.72;;;;;;;;;;6179389;23;20052;-84
2023/02/04 04:15:39;;;;;;;11.43;4.15;;;;;;;;;;6179410;23;20060;-84
2023/02/04 04:18:13;;;;;;;12.90;4.60;;;;;;;;;;6178731;23;20025;-83
2023/02/04 04:20:41;;;;;;;11.90;4.97;;;;;;;;;;6177921;23;20323;-83
2023/02/04 04:23:08;;;;;;;16.25;5.70;;;;;;;;;;6178839;23;20045;-83
2023/02/04 04:25:42;;;;;;;16.90;5.20;;;;;;;;;;6179888;23;20044;-83
2023/02/04 04:28:09;;;;;;;17.15;4.90;;;;;;;;;;6177841;23;20048;-83
2023/02/04 04:30:50;;;;;;;17.35;5.90;;;;;;;;;;6177936;23;20045;-83
2023/02/04 04:33:17;;;;;;;16.27;6.05;;;;;;;;;;6177891;23;20024;-83
2023/02/04 04:35:51;;;;;;;18.93;6.30;;;;;;;;;;6178869;23;20032;-83
2023/02/04 04:38:18;;;;;;;20.63;6.50;;;;;;;;;;6177896;23;20474;-83
2023/02/04 04:40:45;;;;;;;18.73;6.32;;;;;;;;;;6178566;23;20067;-83
2023/02/04 04:43:19;;;;;;;20.02;6.25;;;;;;;;;;6178664;23;20474;-83
2023/02/04 04:45:47;;;;;;;20.77;6.13;;;;;;;;;;6178535;23;20489;-83
2023/02/04 04:48:22;;;;;;;22.93;6.87;;;;;;;;;;6178627;23;20127;-83
2023/02/04 04:50:51;;;;;;;21.35;6.93;;;;;;;;;;6178743;23;20031;-83
2023/02/04 04:53:18;;;;;;;20.98;6.78;;;;;;;;;;6177615;23;20471;-83
2023/02/04 04:55:52;;;;;;;22.13;7.33;;;;;;;;;;6154317;23;20130;-83
2023/02/04 04:58:19;;;;;;;21.75;8.38;;;;;;;;;;6178605;23;20059;-83
2023/02/04 05:00:47;;;;;;;22.20;7.43;;;;;;;;;;6179520;23;20569;-83
2023/02/04 05:03:21;;;;;;;23.17;7.70;;;;;;;;;;6177999;23;20029;-83
2023/02/04 05:05:48;;;;;;;;;;;;;;;;;;6180150;23;20053;-84
2023/02/04 05:08:17;;;;;;;26.53;7.83;;;;;;;;;;6178939;23;20136;-83
2023/02/04 05:10:51;;;;;;;20.20;6.77;;;;;;;;;;6179697;23;20032;-83
2023/02/04 05:13:18;;;;;;;22.25;6.78;;;;;;;;;;6178747;23;20814;-83
2023/02/04 05:15:52;;;;;;;26.47;7.57;;;;;;;;;;6178662;23;20056;-84
2023/02/04 05:18:19;;;;;;;24.88;7.22;;;;;;;;;;6177142;23;20021;-83
2023/02/04 05:20:53;;;;;;;19.47;6.17;;;;;;;;;;6179063;23;20328;-83
2023/02/04 05:23:20;;;;;;;19.05;6.20;;;;;;;;;;6178656;23;20143;-83
2023/02/04 05:25:47;;;;;;;22.33;5.72;;;;;;;;;;6179311;23;20504;-83
2023/02/04 05:28:21;;;;;;;17.30;5.30;;;;;;;;;;6176963;23;20414;-83
2023/02/04 05:30:48;;;;;;;;;;;;;;;;;;6176491;23;20044;-82
2023/02/04 05:33:29;;;;;;;15.90;4.40;;;;;;;;;;6177649;23;19916;-83
2023/02/04 05:35:56;;;;;;;14.13;4.63;;;;;;;;;;6178354;23;20067;-83
2023/02/04 05:38:30;;;;;;;11.77;4.27;;;;;;;;;;6177933;23;20092;-83
2023/02/04 05:40:57;;;;;;;14.13;4.88;;;;;;;;;;6178985;23;20124;-83
2023/02/04 05:43:24;;;;;;;17.15;5.78;;;;;;;;;;6177967;23;20096;-83
2023/02/04 05:45:58;;;;;;;15.77;4.93;;;;;;;;;;6178126;23;20028;-83
2023/02/04 05:48:25;;;;;;;13.07;4.90;;;;;;;;;;6177340;23;20032;-83
2023/02/04 05:50:59;;;;;;;14.23;4.83;;;;;;;;;;6178090;23;20059;-83
2023/02/04 05:53:26;;;;;;;19.20;5.53;;;;;;;;;;6178333;23;20111;-83
2023/02/04 05:56:00;;;;;;;9.87;3.90;;;;;;;;;;6178489;23;20028;-82
2023/02/04 05:58:32;;;;;;;12.80;5.35;;;;;;;;;;6177633;23;20567;-83
2023/02/04 06:01:00;;;;;;;20.93;5.47;;;;;;;;;;6178008;23;20021;-83
2023/02/04 06:03:34;;;;;;;15.90;5.47;;;;;;;;;;6178351;23;20017;-83
2023/02/04 06:06:01;;;;;;;18.60;5.97;;;;;;;;;;6177764;23;20047;-83
2023/02/04 06:08:35;;;;;;;18.87;6.70;;;;;;;;;;6177772;23;20025;-83
2023/02/04 06:11:02;;;;;;;;;;;;;;;;;;6178049;23;20052;-82
2023/02/04 06:13:29;;;;;;;20.20;7.17;;;;;;;;;;6178013;23;19982;-83
2023/02/04 06:16:03;;;;;;;24.87;6.37;;;;;;;;;;6153785;23;20096;-82
2023/02/04 06:18:30;;;;;;;;;;;;;;;;;;6177932;23;20021;-82
2023/02/04 06:21:04;;;;;;;18.67;5.77;;;;;;;;;;6177988;23;19926;-83
2023/02/04 06:23:33;;;;;;;;;;;;;;;;;;6178647;23;20101;-82
2023/02/04 06:26:01;;;;;;;14.90;4.83;;;;;;;;;;6178602;23;19926;-82
2023/02/04 06:28:35;;;;;;;16.17;5.30;;;;;;;;;;6176545;23;20554;-82
2023/02/04 06:31:09;;;;;;;;;;;;;;;;;;6177136;23;20064;-82
2023/02/04 06:33:43;;;;;;;27.37;5.43;;;;;;;;;;6152339;23;20004;-82
2023/02/04 06:36:10;;;;;;;;;;;;;;;;;;6177260;23;20526;-82
2023/02/04 06:38:37;;;;;;;16.73;5.07;;;;;;;;;;6177210;23;20007;-82
2023/02/04 06:41:11;;;;;;;19.77;5.43;;;;;;;;;;6154542;23;20020;-79
2023/02/04 06:43:38;;;;;;;21.33;6.53;;;;;;;;;;6177937;23;20083;-82
2023/02/04 06:46:12;;;;;;;20.03;6.17;;;;;;;;;;6178075;23;20564;-82
2023/02/04 06:48:39;;;;;;;15.77;6.50;;;;;;;;;;6151778;23;20033;-82
2023/02/04 06:51:06;;;;;;;;;;;;;;;;;;6177644;23;20550;-81
2023/02/04 06:53:42;;;;;;;16.90;4.87;;;;;;;;;;6176949;23;19991;-82
2023/02/04 06:56:17;;;;;;;13.17;4.87;;;;;;;;;;6178271;23;20099;-82
2023/02/04 06:58:50;;;;;;;16.53;4.87;;;;;;;;;;6178075;23;20096;-81
2023/02/04 07:01:17;;;;;;;9.27;4.50;;;;;;;;;;6180538;23;20492;-82
2023/02/04 07:03:44;;;;;;;;;;;;;;;;;;6180405;23;20028;-82
2023/02/04 07:06:18;;;;;;;12.53;4.10;;;;;;;;;;6180561;23;19920;-82
2023/02/04 07:08:46;;;;;;;16.50;5.03;;;;;;;;;;6179514;23;20025;-81
2023/02/04 07:11:20;;;;;;;13.53;5.40;;;;;;;;;;6181192;23;20025;-81
2023/02/04 07:13:47;;;;;;;;;;;;;;;;;;6180695;23;20095;-81
2023/02/04 07:16:14;;;;;;;13.77;5.23;;;;;;;;;;6179799;23;19963;-84
2023/02/04 07:18:55;;;;;;;19.27;5.93;;;;;;;;;;6178846;23;20056;-84
2023/02/04 07:21:22;;;;;;;39.90;7.17;;;;;;;;;;6179816;23;20100;-84
2023/02/04 07:23:56;;;;;;;17.53;5.63;;;;;;;;;;6179835;23;20105;-83
2023/02/04 07:26:23;;;;;;;;;;;;;;;;;;6181202;23;20108;-84
2023/02/04 07:28:51;;;;;;;15.00;5.47;;;;;;;;;;6176666;23;20187;-84
2023/02/04 07:31:38;;;;;;;23.23;5.50;;;;;;;;;;6145180;23;20028;-84
2023/02/04 07:34:15;;;;;;;16.93;5.47;;;;;;;;;;6149946;23;20037;-85
2023/02/04 07:36:49;;;;;;;12.20;3.70;;;;;;;;;;6148184;23;20109;-84
2023/02/04 07:39:16;;;;;;;17.60;5.67;;;;;;;;;;6150116;23;20335;-84
2023/02/04 07:41:43;;;;;;;;;;;;;;;;;;6149581;23;20426;-85
2023/02/04 07:44:17;;;;;;;15.40;5.00;;;;;;;;;;6150339;23;19925;-83
2023/02/04 07:46:44;;;;;;;;;;;;;;;;;;6151422;23;20441;-84
2023/02/04 07:49:18;;;;;;;16.20;4.83;;;;;;;;;;6150458;23;19920;-84
2023/02/04 07:51:45;;;;;;;11.80;4.30;;;;;;;;;;6149905;23;20023;-84
2023/02/04 07:54:12;;;;;;;;;;;;;;;;;;6150586;23;20351;-84
2023/02/04 07:56:46;;;;;;;17.33;5.00;;;;;;;;;;6149877;23;19999;-83
2023/02/04 07:59:13;;;;;;;16.97;4.83;;;;;;;;;;6149303;23;20494;-84
2023/02/04 08:01:48;;;;;;;12.57;5.10;;;;;;;;;;6149744;23;20100;-84
2023/02/04 08:04:15;;;;;;;15.67;5.70;;;;;;;;;;6149487;23;20026;-84
2023/02/04 08:06:43;;;;;;;13.70;4.40;;;;;;;;;;6148244;23;20752;-84
2023/02/04 08:09:16;;;;;;;12.70;4.53;;;;;;;;;;6149837;23;20025;-82
2023/02/04 08:11:43;;;;;;;;;;;;;;;;;;6150779;23;20025;-82
2023/02/04 08:14:17;;;;;;;12.43;3.63;;;;;;;;;;6148439;23;19924;-82
2023/02/04 08:16:51;;;;;;;11.00;4.00;;;;;;;;;;6149321;23;20145;-82
2023/02/04 08:19:25;;;;;;;11.63;3.90;;;;;;;;;;6150019;23;20104;-82
2023/02/04 08:21:59;;;;;;;11.57;4.30;;;;;;;;;;6147853;23;20104;-82
2023/02/04 08:24:26;;;;;;;12.50;4.00;;;;;;;;;;6148077;23;20067;-82
2023/02/04 08:26:53;;;;;;;;;;;;;;;;;;6149588;23;20103;-82
2023/02/04 08:29:27;;;;;;;7.60;3.10;;;;;;;;;;6149744;23;19931;-82
2023/02/04 08:31:54;;;;;;;;;;;;;;;;;;6175509;23;20049;-82
2023/02/04 08:34:35;;;;;;;7.27;3.30;;;;;;;;;;6154745;23;19978;-82
2023/02/04 08:37:02;;;;;;;12.00;4.10;;;;;;;;;;6177119;23;20120;-83
2023/02/04 08:39:37;;;;;;;8.60;3.73;;;;;;;;;;6177291;23;20079;-82
2023/02/04 08:42:04;;;;;;;9.27;4.30;;;;;;;;;;6178322;23;20126;-82
2023/02/04 08:44:31;;;;;;;11.43;3.53;;;;;;;;;;6177693;23;20117;-82
2023/02/04 08:47:05;;;;;;;9.80;3.57;;;;;;;;;;6178163;23;20100;-82
2023/02/04 08:49:32;;;;;;;8.13;3.05;;;;;;;;;;6179368;23;20024;-83
2023/02/04 08:52:06;;;;;;;9.10;3.50;;;;;;;;;;6179657;23;20056;-83
2023/02/04 08:54:34;;;;;;;6.80;3.53;;;;;;;;;;6179006;23;20025;-82
2023/02/04 08:57:08;;;;;;;12.60;3.60;;;;;;;;;;6177140;23;20358;-82
2023/02/04 08:59:35;;;;;;;10.50;4.05;;;;;;;;;;6178819;23;20485;-82
2023/02/04 09:02:09;;;;;;;8.40;3.33;;;;;;;;;;6178688;23;20029;-82
2023/02/04 09:04:36;;;;;;;8.93;3.23;;;;;;;;;;6179065;23;20091;-82
2023/02/04 09:07:03;;;;;;;12.85;3.75;;;;;;;;;;6178126;23;20021;-82
2023/02/04 09:09:37;;;;;;;10.60;3.40;;;;;;;;;;6179617;23;20032;-83
2023/02/04 09:12:04;;;;;;;8.48;3.47;;;;;;;;;;6179266;23;20521;-83
2023/02/04 09:14:38;;;;;;;10.43;3.57;;;;;;;;;;6181079;23;20027;-82
2023/02/04 09:17:06;;;;;;;6.45;3.38;;;;;;;;;;6179853;23;20067;-83
2023/02/04 09:19:33;;;;;;;8.67;3.57;;;;;;;;;;6178464;23;20017;-82
2023/02/04 09:22:07;;;;;;;9.50;2.80;;;;;;;;;;6177620;23;20052;-82
2023/02/04 09:24:34;;;;;;;8.70;3.45;;;;;;;;;;6177357;23;20056;-82
2023/02/04 09:27:08;;;;;;;7.77;3.27;;;;;;;;;;6178895;23;20087;-84
2023/02/04 09:29:35;;;;;;;8.45;3.65;;;;;;;;;;6178519;23;20071;-83
2023/02/04 09:32:16;;;;;;;8.37;2.80;;;;;;;;;;6177449;23;20028;-83
2023/02/04 09:34:43;;;;;;;12.67;3.00;;;;;;;;;;6179389;23;20097;-83
2023/02/04 09:37:17;;;;;;;7.40;2.90;;;;;;;;;;6179969;23;20470;-83
2023/02/04 09:39:44;;;;;;;7.95;3.60;;;;;;;;;;6178662;23;20418;-82
2023/02/04 09:42:15;;;;;;;6.93;3.10;;;;;;;;;;6179564;23;20017;-84
2023/02/04 09:44:49;;;;;;;5.57;2.70;;;;;;;;;;6179522;23;20103;-81
2023/02/04 09:47:16;;;;;;;;;;;;;;;;;;6152715;23;20071;-84
2023/02/04 09:49:50;;;;;;;13.90;2.90;;;;;;;;;;6178051;23;19943;-83
2023/02/04 09:52:18;;;;;;;4.82;2.60;;;;;;;;;;6179373;23;20049;-83
2023/02/04 09:54:51;;;;;;;5.37;2.60;;;;;;;;;;6179206;23;20025;-83
2023/02/04 09:57:19;;;;;;;6.78;2.70;;;;;;;;;;6179555;23;20028;-83
2023/02/04 09:59:46;;;;;;;11.17;3.63;;;;;;;;;;6153239;23;20021;-83
2023/02/04 10:02:21;;;;;;;6.87;2.90;;;;;;;;;;6179155;23;20056;-83
2023/02/04 10:04:52;;;;;;;9.80;3.28;;;;;;;;;;6177567;23;20025;-84
2023/02/04 10:07:27;;;;;;;9.25;3.03;;;;;;;;;;6177058;23;20025;-82
2023/02/04 10:09:55;;;;;;;6.20;2.92;;;;;;;;;;6177854;23;20049;-83
2023/02/04 10:12:30;;;;;;;8.35;2.88;;;;;;;;;;6178275;23;20067;-83
2023/02/04 10:14:59;;;;;;;8.47;2.77;;;;;;;;;;6178607;23;20053;-84
2023/02/04 10:17:26;;;;;;;8.18;2.97;;;;;;;;;;6178059;23;20462;-83
2023/02/04 10:20:00;;;;;;;7.03;3.78;;;;;;;;;;6177598;23;20025;-83
2023/02/04 10:22:27;;;;;;;7.45;2.85;;;;;;;;;;6179353;23;20363;-84
2023/02/04 10:25:01;;;;;;;6.73;3.37;;;;;;;;;;6178144;23;20336;-85
2023/02/04 10:27:28;;;;;;;7.40;3.78;;;;;;;;;;6179754;23;20127;-84
2023/02/04 10:30:23;;;;;;;9.98;4.20;;;;;;;;;;6175506;23;20028;-85
2023/02/04 10:32:57;;;;;;;9.02;4.13;;;;;;;;;;6179342;23;20021;-83
2023/02/04 10:35:31;;;;;;;9.55;4.70;;;;;;;;;;6180288;23;20837;-84
2023/02/04 10:38:05;;;;;;;11.85;4.78;;;;;;;;;;6180497;23;20529;-84
2023/02/04 10:40:39;;;;;;;9.52;5.10;;;;;;;;;;6179503;23;20096;-81
2023/02/04 10:43:10;;;;;;;10.52;5.28;;;;;;;;;;6179291;23;20243;-84
2023/02/04 10:45:37;;;;;;;10.20;4.78;;;;;;;;;;6180168;23;20033;-84
2023/02/04 10:48:18;;;;;;;9.65;3.78;;;;;;;;;;6179913;23;20025;-84
2023/02/04 10:50:46;;;;;;;10.00;4.82;;;;;;;;;;6177469;23;20657;-84
2023/02/04 10:56:14;;;;;;;9.15;4.72;;;;;;;;;;6178935;23;20522;-81
2023/02/04 10:58:47;;;;;;;12.15;4.82;;;;;;;;;;6180025;23;20100;-83
2023/02/04 11:01:15;;;;;;;13.63;5.18;;;;;;;;;;6180010;23;20025;-81
2023/02/04 11:03:49;;;;;;;15.75;5.78;;;;;;;;;;6178474;23;20032;-81
2023/02/04 11:06:20;;;;;;;25.83;7.03;;;;;;;;;;6179118;23;20029;-81
2023/02/04 11:08:54;;;;;;;12.27;4.80;;;;;;;;;;6179268;23;20032;-81
2023/02/04 11:11:25;;;;;;;12.50;5.00;;;;;;;;;;6180261;23;20064;-81
2023/02/04 11:13:53;;;;;;;17.15;6.93;;;;;;;;;;6179571;23;20473;-81
2023/02/04 11:16:34;;;;;;;16.02;5.80;;;;;;;;;;6155522;23;20096;-82
2023/02/04 11:19:13;;;;;;;14.70;6.30;;;;;;;;;;6180236;23;20358;-82
2023/02/04 11:21:42;;;;;;;18.75;6.70;;;;;;;;;;6180119;23;20036;-82
2023/02/04 11:24:16;;;;;;;21.42;6.80;;;;;;;;;;6178624;23;20506;-82
2023/02/04 11:26:47;;;;;;;20.88;6.93;;;;;;;;;;6180843;23;20024;-82
2023/02/04 11:29:25;;;;;;;26.40;8.73;;;;;;;;;;6180344;23;20029;-82
2023/02/04 11:32:01;;;;;;;30.90;9.68;;;;;;;;;;6176039;23;20103;-81
2023/02/04 11:34:47;;;;;;;31.95;9.18;;;;;;;;;;6178610;23;20089;-82
2023/02/04 11:37:19;;;;;;;27.20;9.25;;;;;;;;;;6179135;23;20109;-82
2023/02/04 11:39:53;;;;;;;29.75;10.90;;;;;;;;;;6179602;23;20020;-81
2023/02/04 11:42:20;;;;;;;;;;;;;;;;;;6181069;23;20032;-81
2023/02/04 11:45:12;;;;;;;26.45;9.90;;;;;;;;;;6179324;23;20249;-82
2023/02/04 11:47:40;;;;;;;26.40;8.27;;;;;;;;;;6176983;23;20092;-83
2023/02/04 11:50:23;;;;;;;34.25;11.02;;;;;;;;;;6176657;23;20025;-82
2023/02/04 11:55:57;;;;;;;33.58;9.40;;;;;;;;;;6231490;22;20085;-62
2023/02/04 11:58:51;;;;;;;23.23;7.05;;;;;;;;;;6175760;23;20024;-62
2023/02/04 12:01:25;;;;;;;28.15;7.70;;;;;;;;;;6209008;23;20052;-62
2023/02/04 12:04:00;;;;;;;27.88;9.35;;;;;;;;;;6207585;23;20034;-62
2023/02/04 12:06:29;;;;;;;23.83;7.43;;;;;;;;;;6207069;23;20028;-62
2023/02/04 12:09:15;;;;;;;24.10;8.50;;;;;;;;;;6206774;23;20021;-62
2023/02/04 12:11:53;;;;;;;27.17;8.32;;;;;;;;;;6209127;23;20023;-62
2023/02/04 12:14:20;;;;;;;30.55;9.32;;;;;;;;;;6208214;23;20095;-56
2023/02/04 12:16:55;;;;;;;28.85;9.77;;;;;;;;;;6205641;23;20050;-53
2023/02/04 12:19:22;;;;;;;29.83;8.93;;;;;;;;;;6206575;23;20021;-53
2023/02/04 12:21:54;;;;;;;23.35;8.13;;;;;;;;;;6182616;23;20042;-55
2023/02/04 12:24:28;;;;;;;28.83;8.90;;;;;;;;;;6207495;23;20020;-54
2023/02/04 12:26:55;;;;;;;30.42;9.23;;;;;;;;;;6209434;23;20020;-54
2023/02/04 12:29:29;;;;;;;28.60;8.80;;;;;;;;;;6206949;23;20024;-54
2023/02/04 12:31:56;;;;;;;20.05;6.60;;;;;;;;;;6207605;23;20095;-54
2023/02/04 12:34:23;;;;;;;28.00;7.13;;;;;;;;;;6202828;23;20416;-52
2023/02/04 12:36:57;;;;;;;29.35;9.75;;;;;;;;;;6207570;23;20060;-54
2023/02/04 12:39:24;;;;;;;31.70;9.10;;;;;;;;;;6208098;23;20027;-54
2023/02/04 12:41:58;;;;;;;26.80;7.82;;;;;;;;;;6208639;23;20139;-52
2023/02/04 12:44:25;;;;;;;21.15;7.18;;;;;;;;;;6204273;23;20105;-58
2023/02/04 12:46:53;;;;;;;24.98;7.97;;;;;;;;;;6205288;23;20446;-55
2023/02/04 12:49:27;;;;;;;29.77;9.52;;;;;;;;;;6201926;23;20127;-54
2023/02/04 12:51:57;;;;;;;23.10;8.02;;;;;;;;;;6203594;23;20063;-51
2023/02/04 12:54:31;;;;;;;23.17;7.82;;;;;;;;;;6204378;23;20028;-57
2023/02/04 12:56:58;;;;;;;29.20;8.50;;;;;;;;;;6203496;23;20107;-51
2023/02/04 12:59:26;;;;;;;24.80;8.13;;;;;;;;;;6203617;23;20024;-54
2023/02/04 13:02:09;;;;;;;17.55;5.70;;;;;;;;;;6206229;23;20068;-54
2023/02/04 13:04:37;;;;;;;20.42;6.85;;;;;;;;;;6203993;23;20379;-58
2023/02/04 13:07:11;;;;;;;29.52;10.90;;;;;;;;;;6204440;23;20031;-54
2023/02/04 13:09:38;;;;;;;24.98;8.00;;;;;;;;;;6203387;23;20044;-56
2023/02/04 13:12:05;;;;;;;16.92;3.92;;;;;;;;;;6205267;23;20024;-52
2023/02/04 13:14:39;;;;;;;11.77;4.28;;;;;;;;;;6205189;23;20099;-65
2023/02/04 13:17:07;;;;;;;16.75;5.20;;;;;;;;;;6204896;23;20339;-65
2023/02/04 13:19:40;;;;;;;13.40;8.02;;;;;;;;;;6203731;23;20021;-64
2023/02/04 13:22:07;;;;;;;10.38;3.03;;;;;;;;;;6204947;23;20096;-65
2023/02/04 13:24:42;;;;;;;11.65;4.00;;;;;;;;;;6201433;23;20035;-65
2023/02/04 13:27:09;;;;;;;11.70;3.72;;;;;;;;;;6206138;23;20524;-65
2023/02/04 13:29:36;;;;;;;9.02;3.08;;;;;;;;;;6178552;23;20099;-57
2023/02/04 13:32:10;;;;;;;8.80;2.90;;;;;;;;;;6204984;23;20031;-61
2023/02/04 13:34:37;;;;;;;;;;;;;;;;;;6204204;23;20035;-52
2023/02/04 13:37:11;;;;;;;3.47;1.92;;;;;;;;;;6204664;23;20587;-53
2023/02/04 13:39:38;;;;;;;9.43;2.80;;;;;;;;;;6203640;23;20436;-58
2023/02/04 13:42:05;;;;;;;17.73;9.48;;;;;;;;;;6206023;23;20080;-52
2023/02/04 13:44:39;;;;;;;6.95;2.97;;;;;;;;;;6202885;23;20476;-55
2023/02/04 13:47:06;;;;;;;12.18;3.92;;;;;;;;;;6202228;23;20029;-54
2023/02/04 13:49:40;;;;;;;9.45;3.20;;;;;;;;;;6204195;23;20027;-56
2023/02/04 13:52:07;;;;;;;8.38;3.10;;;;;;;;;;6204973;23;20056;-68
2023/02/04 13:54:34;;;;;;;8.25;3.20;;;;;;;;;;6204429;23;20548;-69
2023/02/04 13:57:08;;;;;;;8.93;2.65;;;;;;;;;;6205538;23;20127;-69
2023/02/04 13:59:42;;;;;;;6.97;2.53;;;;;;;;;;6202353;23;20537;-69
2023/02/04 14:02:16;;;;;;;7.43;2.67;;;;;;;;;;6205009;23;20418;-69
2023/02/04 14:04:43;;;;;;;9.20;3.38;;;;;;;;;;6204914;23;20020;-69
2023/02/04 14:07:10;;;;;;;12.13;2.80;;;;;;;;;;6204444;23;20511;-56
2023/02/04 14:09:47;;;;;;;8.77;2.95;;;;;;;;;;6206533;23;20021;-59
2023/02/04 14:12:14;;;;;;;10.13;3.25;;;;;;;;;;6208461;23;20028;-60
2023/02/04 14:14:48;;;;;;;7.63;2.58;;;;;;;;;;6206984;23;20051;-60
2023/02/04 14:17:15;;;;;;;10.45;3.40;;;;;;;;;;6180349;23;20095;-60
2023/02/04 14:19:43;;;;;;;6.65;2.60;;;;;;;;;;6205777;23;20056;-60
2023/02/04 14:22:16;;;;;;;9.45;2.92;;;;;;;;;;6207037;23;20362;-60
2023/02/04 14:24:44;;;;;;;6.07;2.70;;;;;;;;;;6205973;23;20489;-61
2023/02/04 14:27:17;;;;;;;8.27;2.92;;;;;;;;;;6209067;23;20061;-59
2023/02/04 14:29:44;;;;;;;9.00;3.15;;;;;;;;;;6206124;23;20056;-55
2023/02/04 14:32:11;;;;;;;9.63;3.30;;;;;;;;;;6207653;23;20361;-55
2023/02/04 14:34:45;;;;;;;8.77;2.55;;;;;;;;;;6209319;23;20021;-56
2023/02/04 14:37:12;;;;;;;7.50;3.20;;;;;;;;;;6208306;23;20112;-49
2023/02/04 14:39:46;;;;;;;8.35;3.30;;;;;;;;;;6209807;23;20096;-51
2023/02/04 14:42:13;;;;;;;18.30;3.20;;;;;;;;;;6183724;23;20033;-55
2023/02/04 14:44:40;;;;;;;7.95;2.50;;;;;;;;;;6209516;23;20067;-52
2023/02/04 14:47:14;;;;;;;6.35;2.60;;;;;;;;;;6205644;23;20024;-60
2023/02/04 14:49:41;;;;;;;8.55;2.40;;;;;;;;;;6207451;23;20391;-58
2023/02/04 14:52:15;;;;;;;9.30;2.45;;;;;;;;;;6207563;23;20027;-56
2023/02/04 14:54:43;;;;;;;7.45;2.75;;;;;;;;;;6208164;23;20055;-56
2023/02/04 14:57:16;;;;;;;10.32;2.78;;;;;;;;;;6208823;23;20654;-58
2023/02/04 14:59:50;;;;;;;6.70;2.65;;;;;;;;;;6206847;23;20481;-59
2023/02/04 15:02:23;;;;;;;5.63;2.47;;;;;;;;;;6208337;23;20056;-60
2023/02/04 15:04:51;;;;;;;11.00;2.60;;;;;;;;;;6183074;23;20096;-70
2023/02/04 15:07:18;;;;;;;9.00;2.85;;;;;;;;;;6205141;23;20877;-59
2023/02/04 15:09:52;;;;;;;7.90;2.30;;;;;;;;;;6207414;23;20043;-56
2023/02/04 15:12:19;;;;;;;6.15;2.90;;;;;;;;;;6206949;23;20025;-54